createdAt,value
2022-12-27T00:01:33.831Z,8.07
2022-12-27T00:04:00.594Z,8.01
2022-12-27T00:06:27.946Z,8.01
2022-12-27T00:08:55.199Z,8.01
2022-12-27T00:11:23.408Z,8.02
2022-12-27T00:13:50.131Z,8.00
2022-12-27T00:16:19.076Z,7.98
2022-12-27T00:18:46.492Z,7.97
2022-12-27T00:21:13.857Z,8.00
2022-12-27T00:23:42.617Z,7.99
2022-12-27T00:26:11.801Z,7.99
2022-12-27T00:28:38.352Z,7.99
2022-12-27T00:31:07.768Z,7.99
2022-12-27T00:33:35.067Z,7.97
2022-12-27T00:36:02.833Z,7.92
2022-12-27T00:38:29.481Z,7.91
2022-12-27T00:40:56.245Z,7.86
2022-12-27T00:43:23.686Z,7.85
2022-12-27T00:45:50.352Z,7.84
2022-12-27T00:48:18.039Z,7.84
2022-12-27T00:50:45.271Z,7.83
2022-12-27T00:53:12.632Z,7.80
2022-12-27T00:55:39.129Z,7.81
2022-12-27T00:58:05.723Z,7.80
2022-12-27T01:00:32.299Z,7.76
2022-12-27T01:02:58.801Z,7.73
2022-12-27T01:05:25.340Z,7.74
2022-12-27T01:07:52.253Z,7.70
2022-12-27T01:10:20.077Z,7.70
2022-12-27T01:12:46.683Z,7.67
2022-12-27T01:15:13.295Z,7.67
2022-12-27T01:17:40.007Z,7.62
2022-12-27T01:20:07.289Z,7.60
2022-12-27T01:22:33.725Z,7.60
2022-12-27T01:25:00.328Z,7.60
2022-12-27T01:27:26.905Z,7.64
2022-12-27T01:29:54.033Z,7.69
2022-12-27T01:32:22.332Z,7.68
2022-12-27T01:34:49.981Z,7.67
2022-12-27T01:37:16.628Z,7.64
2022-12-27T01:39:43.137Z,7.61
2022-12-27T01:42:35.328Z,7.63
2022-12-27T01:45:02.356Z,7.65
2022-12-27T01:47:44.582Z,7.65
2022-12-27T01:50:29.108Z,7.67
2022-12-27T01:52:58.748Z,7.65
2022-12-27T01:55:30.128Z,7.63
2022-12-27T01:57:59.819Z,7.57
2022-12-27T02:00:26.547Z,7.54
2022-12-27T02:02:53.242Z,7.58
2022-12-27T02:05:21.827Z,7.58
2022-12-27T02:07:55.123Z,7.58
2022-12-27T02:10:21.979Z,7.52
2022-12-27T02:12:48.493Z,7.46
2022-12-27T02:15:15.347Z,7.50
2022-12-27T02:17:41.876Z,7.48
2022-12-27T02:20:12.692Z,7.47
2022-12-27T02:23:16.639Z,7.47
2022-12-27T02:26:01.936Z,7.41
2022-12-27T02:28:31.197Z,7.39
2022-12-27T02:31:06.363Z,7.37
2022-12-27T02:33:36.383Z,7.39
2022-12-27T02:36:08.807Z,7.39
2022-12-27T02:38:41.053Z,7.38
2022-12-27T02:41:27.421Z,7.35
2022-12-27T02:44:15.904Z,7.36
2022-12-27T02:47:01.615Z,7.36
2022-12-27T02:49:54.084Z,7.38
2022-12-27T02:52:45.556Z,7.38
2022-12-27T02:55:30.722Z,7.34
2022-12-27T02:58:06.461Z,7.32
2022-12-27T03:01:03.847Z,7.30
2022-12-27T03:03:30.349Z,7.26
2022-12-27T03:06:15.579Z,7.30
2022-12-27T03:08:53.996Z,7.30
2022-12-27T03:11:39.190Z,7.34
2022-12-27T03:14:40.947Z,7.34
2022-12-27T03:17:11.815Z,7.35
2022-12-27T03:20:03.237Z,7.29
2022-12-27T03:22:49.697Z,7.34
2022-12-27T03:25:29.081Z,7.36
2022-12-27T03:28:18.160Z,7.39
2022-12-27T03:31:04.937Z,7.38
2022-12-27T03:33:32.765Z,7.36
2022-12-27T03:36:22.108Z,7.37
2022-12-27T03:39:13.349Z,7.35
2022-12-27T03:42:01.324Z,7.30
2022-12-27T03:44:28.031Z,7.31
2022-12-27T03:46:54.551Z,7.28
2022-12-27T03:49:21.731Z,7.27
2022-12-27T03:51:52.218Z,7.29
2022-12-27T03:54:26.706Z,7.34
2022-12-27T03:56:58.766Z,7.43
2022-12-27T03:59:25.756Z,7.41
2022-12-27T04:01:52.612Z,7.45
2022-12-27T04:04:19.224Z,7.43
2022-12-27T04:06:45.815Z,7.39
2022-12-27T04:09:31.397Z,7.41
2022-12-27T04:12:16.580Z,7.36
2022-12-27T04:15:01.975Z,7.36
2022-12-27T04:17:47.204Z,7.23
2022-12-27T04:20:32.270Z,7.04
2022-12-27T04:23:17.652Z,7.01
2022-12-27T04:26:03.964Z,7.06
2022-12-27T04:28:49.282Z,7.10
2022-12-27T04:31:34.753Z,7.06
2022-12-27T04:34:19.782Z,7.05
2022-12-27T04:36:46.829Z,7.06
2022-12-27T04:39:13.722Z,7.08
2022-12-27T04:41:58.767Z,7.09
2022-12-27T04:44:43.930Z,7.13
2022-12-27T04:47:31.753Z,7.15
2022-12-27T04:50:17.004Z,7.11
2022-12-27T04:53:02.260Z,7.04
2022-12-27T04:55:29.553Z,7.03
2022-12-27T04:57:56.749Z,7.03
2022-12-27T05:00:44.544Z,6.97
2022-12-27T05:03:12.745Z,6.91
2022-12-27T05:05:40.452Z,6.93
2022-12-27T05:08:25.673Z,6.94
2022-12-27T05:11:10.983Z,6.98
2022-12-27T05:13:56.323Z,7.02
2022-12-27T05:16:22.880Z,7.03
2022-12-27T05:18:49.426Z,6.97
2022-12-27T05:21:15.917Z,7.05
2022-12-27T05:24:05.394Z,7.06
2022-12-27T05:26:32.781Z,7.04
2022-12-27T05:28:59.882Z,7.06
2022-12-27T05:31:27.925Z,7.02
2022-12-27T05:33:54.568Z,6.92
2022-12-27T05:36:21.484Z,6.84
2022-12-27T05:38:48.045Z,6.74
2022-12-27T05:41:14.582Z,6.66
2022-12-27T05:43:41.463Z,6.51
2022-12-27T05:46:12.186Z,6.43
2022-12-27T05:48:38.951Z,6.41
2022-12-27T05:51:06.599Z,6.49
2022-12-27T05:53:33.279Z,6.46
2022-12-27T05:55:59.897Z,6.53
2022-12-27T05:58:26.889Z,6.38
2022-12-27T06:00:53.624Z,6.13
2022-12-27T06:03:20.720Z,6.00
2022-12-27T06:05:47.722Z,5.96
2022-12-27T06:08:14.346Z,5.93
2022-12-27T06:10:41.114Z,6.00
2022-12-27T06:13:07.837Z,6.02
2022-12-27T06:15:34.412Z,6.05
2022-12-27T06:18:03.505Z,6.03
2022-12-27T06:20:30.272Z,6.06
2022-12-27T06:22:58.448Z,6.06
2022-12-27T06:25:24.904Z,6.09
2022-12-27T06:27:51.419Z,6.07
2022-12-27T06:30:17.897Z,6.02
2022-12-27T06:32:44.414Z,6.03
2022-12-27T06:35:11.302Z,5.99
2022-12-27T06:37:39.233Z,5.97
2022-12-27T06:40:06.082Z,5.88
2022-12-27T06:42:32.630Z,5.82
2022-12-27T06:44:59.112Z,5.77
2022-12-27T06:47:25.686Z,5.73
2022-12-27T06:49:52.184Z,5.62
2022-12-27T06:52:19.552Z,5.60
2022-12-27T06:54:46.278Z,5.59
2022-12-27T06:57:13.087Z,5.58
2022-12-27T06:59:39.542Z,5.60
2022-12-27T07:02:06.270Z,5.68
2022-12-27T07:04:33.009Z,5.74
2022-12-27T07:06:59.572Z,5.81
2022-12-27T07:09:27.012Z,5.95
2022-12-27T07:11:54.099Z,6.09
2022-12-27T07:14:20.607Z,6.19
2022-12-27T07:16:49.042Z,6.28
2022-12-27T07:19:15.603Z,6.36
2022-12-27T07:21:43.052Z,6.39
2022-12-27T07:24:09.793Z,6.48
2022-12-27T07:26:36.355Z,6.53
2022-12-27T07:29:02.940Z,6.52
2022-12-27T07:31:31.699Z,6.48
2022-12-27T07:33:58.928Z,6.37
2022-12-27T07:36:27.721Z,6.18
2022-12-27T07:38:54.744Z,6.12
2022-12-27T07:41:21.473Z,6.04
2022-12-27T07:43:48.086Z,5.96
2022-12-27T07:46:14.687Z,5.95
2022-12-27T07:48:42.107Z,5.87
2022-12-27T07:51:08.673Z,5.87
2022-12-27T07:53:35.868Z,5.83
2022-12-27T07:56:06.877Z,5.78
2022-12-27T07:58:40.508Z,5.76
2022-12-27T08:01:07.849Z,5.66
2022-12-27T08:03:35.509Z,5.64
2022-12-27T08:06:02.361Z,5.70
2022-12-27T08:08:39.472Z,5.71
2022-12-27T08:11:06.167Z,5.74
2022-12-27T08:13:33.206Z,5.71
2022-12-27T08:16:00.031Z,5.80
2022-12-27T08:18:26.729Z,5.92
2022-12-27T08:20:53.226Z,5.80
2022-12-27T08:23:19.841Z,5.71
2022-12-27T08:25:48.713Z,5.73
2022-12-27T08:28:16.649Z,5.80
2022-12-27T08:30:44.549Z,5.97
2022-12-27T08:33:11.838Z,6.01
2022-12-27T08:35:52.682Z,6.07
2022-12-27T08:38:20.447Z,6.09
2022-12-27T08:40:47.011Z,6.17
2022-12-27T08:43:14.250Z,6.25
2022-12-27T08:45:50.099Z,6.16
2022-12-27T08:48:58.849Z,6.14
2022-12-27T08:51:41.155Z,6.11
2022-12-27T08:54:38.751Z,6.24
2022-12-27T08:57:23.570Z,6.32
2022-12-27T09:00:38.457Z,6.32
2022-12-27T09:03:14.505Z,6.34
2022-12-27T09:05:42.169Z,6.37
2022-12-27T09:08:30.975Z,6.55
2022-12-27T09:11:30.557Z,6.68
2022-12-27T09:14:07.408Z,6.73
2022-12-27T09:16:35.756Z,6.83
2022-12-27T09:19:18.178Z,6.78
2022-12-27T09:21:50.746Z,6.74
2022-12-27T09:24:29.533Z,6.83
2022-12-27T09:27:02.648Z,6.93
2022-12-27T09:29:29.183Z,7.04
2022-12-27T09:32:01.838Z,7.11
2022-12-27T09:34:52.895Z,7.24
2022-12-27T09:37:45.211Z,7.32
2022-12-27T09:40:49.316Z,7.41
2022-12-27T09:46:47.304Z,7.48
2022-12-27T09:49:45.360Z,7.63
2022-12-27T09:52:43.295Z,7.65
2022-12-27T09:55:44.277Z,7.73
2022-12-27T09:58:30.272Z,7.86
2022-12-27T10:04:17.767Z,8.21
2022-12-27T10:07:06.369Z,8.38
2022-12-27T10:13:23.071Z,8.88
2022-12-27T10:16:20.712Z,9.02
2022-12-27T10:19:06.061Z,9.05
2022-12-27T10:21:34.415Z,9.16
2022-12-27T10:24:46.117Z,9.01
2022-12-27T10:27:24.825Z,8.89
2022-12-27T10:30:27.214Z,8.85
2022-12-27T10:32:54.109Z,8.95
2022-12-27T10:35:25.123Z,9.23
2022-12-27T10:38:12.133Z,9.41
2022-12-27T10:40:51.839Z,9.38
2022-12-27T10:43:41.551Z,9.38
2022-12-27T10:46:34.913Z,9.47
2022-12-27T10:49:21.334Z,9.51
2022-12-27T10:51:49.329Z,9.58
2022-12-27T10:54:21.687Z,9.59
2022-12-27T10:56:48.447Z,9.61
2022-12-27T10:59:22.723Z,9.62
2022-12-27T11:02:26.343Z,9.49
2022-12-27T11:05:07.501Z,9.60
2022-12-27T11:07:52.664Z,9.70
2022-12-27T11:10:31.548Z,9.81
2022-12-27T11:13:07.375Z,9.86
2022-12-27T11:15:46.898Z,9.91
2022-12-27T11:18:40.565Z,9.90
2022-12-27T11:21:47.321Z,9.88
2022-12-27T11:24:17.912Z,9.96
2022-12-27T11:27:05.405Z,10.00
2022-12-27T11:29:34.960Z,10.09
2022-12-27T11:32:06.843Z,10.16
2022-12-27T11:38:38.807Z,10.18
2022-12-27T11:41:11.333Z,10.24
2022-12-27T11:47:14.885Z,10.54
2022-12-27T11:50:09.855Z,10.65
2022-12-27T13:13:44.151Z,11.19
2022-12-27T13:16:21.365Z,10.96
2022-12-27T13:19:05.862Z,10.75
2022-12-27T13:21:35.401Z,10.54
2022-12-27T13:24:23.717Z,10.35
2022-12-27T13:27:05.536Z,10.20
2022-12-27T13:29:52.638Z,10.04
2022-12-27T13:32:31.567Z,10.18
2022-12-27T13:35:06.857Z,10.29
2022-12-27T13:37:52.494Z,10.31
2022-12-27T13:40:23.157Z,10.32
2022-12-27T13:42:49.686Z,10.26
2022-12-27T13:45:22.297Z,10.18
2022-12-27T13:47:58.323Z,10.19
2022-12-27T13:50:24.758Z,10.14
2022-12-27T13:53:09.523Z,10.15
2022-12-27T13:55:54.825Z,10.15
2022-12-27T13:58:45.132Z,10.13
2022-12-27T14:01:21.442Z,10.15
2022-12-27T14:03:48.112Z,10.18
2022-12-27T14:06:20.912Z,10.21
2022-12-27T14:08:50.735Z,10.24
2022-12-27T14:11:32.772Z,10.26
2022-12-27T14:14:00.827Z,10.25
2022-12-27T14:16:42.922Z,10.19
2022-12-27T14:19:21.687Z,10.11
2022-12-27T14:22:17.926Z,10.07
2022-12-27T14:24:50.576Z,9.94
2022-12-27T14:27:36.188Z,9.72
2022-12-27T14:30:05.904Z,9.74
2022-12-27T14:32:32.575Z,9.83
2022-12-27T14:35:02.391Z,9.86
2022-12-27T14:37:38.382Z,9.82
2022-12-27T14:40:20.421Z,9.75
2022-12-27T14:43:06.423Z,9.81
2022-12-27T14:45:45.352Z,9.92
2022-12-27T14:48:19.660Z,10.09
2022-12-27T14:51:08.104Z,10.22
2022-12-27T14:53:49.860Z,10.03
2022-12-27T14:56:22.543Z,9.95
2022-12-27T14:58:54.672Z,10.01
2022-12-27T15:01:21.493Z,10.09
2022-12-27T15:03:54.645Z,10.15
2022-12-27T15:06:24.424Z,10.13
2022-12-27T15:08:54.057Z,9.96
2022-12-27T15:11:29.782Z,9.83
2022-12-27T15:14:02.591Z,9.52
2022-12-27T15:16:48.295Z,9.35
2022-12-27T15:19:39.771Z,9.29
2022-12-27T15:22:10.092Z,9.39
2022-12-27T15:24:36.669Z,9.24
2022-12-27T15:27:03.255Z,9.11
2022-12-27T15:29:35.832Z,9.04
2022-12-27T15:32:20.811Z,8.99
2022-12-27T15:34:57.036Z,8.85
2022-12-27T15:37:42.436Z,8.80
2022-12-27T15:40:21.345Z,8.81
2022-12-27T15:42:54.546Z,8.77
2022-12-27T15:45:21.013Z,8.76
2022-12-27T15:48:06.105Z,8.68
2022-12-27T15:50:32.712Z,8.56
2022-12-27T15:53:16.919Z,8.52
2022-12-27T15:56:02.452Z,8.63
2022-12-27T15:58:29.252Z,8.79
2022-12-27T16:01:17.911Z,8.99
2022-12-27T16:03:51.264Z,9.12
2022-12-27T16:06:36.170Z,9.21
2022-12-27T16:09:21.186Z,9.17
2022-12-27T16:12:06.894Z,9.01
2022-12-27T16:14:34.770Z,8.86
2022-12-27T16:17:24.517Z,8.81
2022-12-27T16:20:00.641Z,8.77
2022-12-27T16:22:32.803Z,8.72
2022-12-27T16:25:05.600Z,8.70
2022-12-27T16:27:32.884Z,8.60
2022-12-27T16:29:59.773Z,8.56
2022-12-27T16:32:28.403Z,8.56
2022-12-27T16:34:57.709Z,8.48
2022-12-27T16:37:24.379Z,8.47
2022-12-27T16:39:54.209Z,8.50
2022-12-27T16:42:27.695Z,8.52
2022-12-27T16:44:54.264Z,8.52
2022-12-27T16:47:40.048Z,8.43
2022-12-27T16:50:35.978Z,8.40
2022-12-27T16:53:14.963Z,8.40
2022-12-27T16:55:48.035Z,8.42
2022-12-27T16:58:24.127Z,8.41
2022-12-27T17:00:52.085Z,8.32
2022-12-27T17:03:21.197Z,8.27
2022-12-27T17:06:21.592Z,8.21
2022-12-27T17:08:36.531Z,8.21
2022-12-27T17:11:22.747Z,8.22
2022-12-27T17:13:55.905Z,8.25
2022-12-27T17:16:27.280Z,8.27
2022-12-27T17:18:54.097Z,8.28
2022-12-27T17:21:29.699Z,8.25
2022-12-27T17:24:01.144Z,8.30
2022-12-27T17:26:46.607Z,8.24
2022-12-27T17:29:31.645Z,8.21
2022-12-27T17:32:09.177Z,8.21
2022-12-27T17:34:51.550Z,8.20
2022-12-27T17:37:24.547Z,8.08
2022-12-27T17:39:57.206Z,8.02
2022-12-27T17:42:50.478Z,7.96
2022-12-27T17:45:31.087Z,7.94
2022-12-27T17:48:09.333Z,7.88
2022-12-27T17:50:37.198Z,7.85
2022-12-27T17:53:22.593Z,7.79
2022-12-27T17:56:20.171Z,7.73
2022-12-27T17:58:46.750Z,7.64
2022-12-27T18:01:13.849Z,7.58
2022-12-27T18:03:43.243Z,7.56
2022-12-27T18:06:10.620Z,7.53
2022-12-27T18:08:38.951Z,7.50
2022-12-27T18:11:05.959Z,7.46
2022-12-27T18:13:38.005Z,7.39
2022-12-27T18:16:16.965Z,7.44
2022-12-27T18:18:47.453Z,7.37
2022-12-27T18:21:22.248Z,7.36
2022-12-27T18:23:52.727Z,7.34
2022-12-27T18:26:21.280Z,7.40
2022-12-27T18:28:48.114Z,7.46
2022-12-27T18:31:47.831Z,7.54
2022-12-27T18:34:14.381Z,7.61
2022-12-27T18:36:49.494Z,7.64
2022-12-27T18:39:16.027Z,7.68
2022-12-27T18:41:49.980Z,7.67
2022-12-27T18:44:26.476Z,7.70
2022-12-27T18:46:55.327Z,7.73
2022-12-27T18:49:30.963Z,7.72
2022-12-27T18:51:58.117Z,7.65
2022-12-27T18:54:27.550Z,7.63
2022-12-27T18:56:54.586Z,7.64
2022-12-27T18:59:28.989Z,7.57
2022-12-27T19:02:02.276Z,7.42
2022-12-27T19:04:28.901Z,7.32
2022-12-27T19:07:05.904Z,7.25
2022-12-27T19:09:52.873Z,7.21
2022-12-27T19:12:31.042Z,7.19
2022-12-27T19:14:57.724Z,7.09
2022-12-27T19:17:26.801Z,7.03
2022-12-27T19:19:58.144Z,6.96
2022-12-27T19:22:30.396Z,6.94
2022-12-27T19:25:03.632Z,6.88
2022-12-27T19:27:30.556Z,6.89
2022-12-27T19:29:57.378Z,6.93
2022-12-27T19:32:34.371Z,7.02
2022-12-27T19:35:02.529Z,7.13
2022-12-27T19:37:30.157Z,7.14
2022-12-27T19:40:00.173Z,7.16
2022-12-27T19:42:35.231Z,7.15
2022-12-27T19:45:05.547Z,7.18
2022-12-27T19:47:42.240Z,7.14
2022-12-27T19:50:10.004Z,7.09
2022-12-27T19:52:37.045Z,7.03
2022-12-27T19:55:06.497Z,6.96
2022-12-27T19:57:33.654Z,6.89
2022-12-27T20:00:01.586Z,6.87
2022-12-27T20:02:32.041Z,6.88
2022-12-27T20:05:01.538Z,6.88
2022-12-27T20:07:28.358Z,6.76
2022-12-27T20:09:55.060Z,6.69
2022-12-27T20:12:24.815Z,6.74
2022-12-27T20:14:51.492Z,6.75
2022-12-27T20:17:18.004Z,6.71
2022-12-27T20:19:44.961Z,6.73
2022-12-27T20:22:11.467Z,6.72
2022-12-27T20:24:38.028Z,6.67
2022-12-27T20:27:05.192Z,6.71
2022-12-27T20:29:31.813Z,6.78
2022-12-27T20:31:58.536Z,6.99
2022-12-27T20:34:25.219Z,7.00
2022-12-27T20:36:55.514Z,6.94
2022-12-27T20:39:22.277Z,6.82
2022-12-27T20:41:48.842Z,6.69
2022-12-27T20:44:15.416Z,6.63
2022-12-27T20:46:42.140Z,6.66
2022-12-27T20:49:08.780Z,6.71
2022-12-27T20:51:35.353Z,6.73
2022-12-27T20:54:02.927Z,6.66
2022-12-27T20:56:29.669Z,6.73
2022-12-27T20:58:56.341Z,6.74
2022-12-27T21:01:24.316Z,6.61
2022-12-27T21:03:53.831Z,6.55
2022-12-27T21:06:21.499Z,6.61
2022-12-27T21:08:54.428Z,6.71
2022-12-27T21:11:24.393Z,6.64
2022-12-27T21:13:51.166Z,6.51
2022-12-27T21:16:25.737Z,6.42
2022-12-27T21:18:52.629Z,6.33
2022-12-27T21:21:20.473Z,6.27
2022-12-27T21:23:47.595Z,6.22
2022-12-27T21:26:15.700Z,6.22
2022-12-27T21:28:42.777Z,6.14
2022-12-27T21:31:10.235Z,6.18
2022-12-27T21:33:38.528Z,6.17
2022-12-27T21:36:10.743Z,6.21
2022-12-27T21:38:37.749Z,6.27
2022-12-27T21:41:05.654Z,6.32
2022-12-27T21:43:33.413Z,6.38
2022-12-27T21:46:04.156Z,6.34
2022-12-27T21:48:34.759Z,6.37
2022-12-27T21:51:14.786Z,6.36
2022-12-27T21:53:42.207Z,6.24
2022-12-27T21:56:11.632Z,6.23
2022-12-27T21:58:39.129Z,6.29
2022-12-27T22:01:08.878Z,6.34
2022-12-27T22:03:37.610Z,6.39
2022-12-27T22:06:14.616Z,6.37
2022-12-27T22:08:42.073Z,6.43
2022-12-27T22:11:09.104Z,6.47
2022-12-27T22:13:36.263Z,6.53
2022-12-27T22:16:04.422Z,6.62
2022-12-27T22:18:33.855Z,6.56
2022-12-27T22:21:01.514Z,6.52
2022-12-27T22:23:31.670Z,6.54
2022-12-27T22:25:58.457Z,6.56
2022-12-27T22:28:25.491Z,6.55
2022-12-27T22:30:52.182Z,6.55
2022-12-27T22:33:18.875Z,6.54
2022-12-27T22:35:45.501Z,6.59
2022-12-27T22:38:12.002Z,6.66
2022-12-27T22:40:45.997Z,6.63
2022-12-27T22:43:13.997Z,6.59
2022-12-27T22:45:42.609Z,6.58
2022-12-27T22:48:09.340Z,6.55
2022-12-27T22:50:37.335Z,6.53
2022-12-27T22:53:04.025Z,6.61
2022-12-27T22:55:30.984Z,6.71
2022-12-27T22:57:57.565Z,6.76
2022-12-27T23:00:24.356Z,6.79
2022-12-27T23:02:51.138Z,6.76
2022-12-27T23:05:17.805Z,6.77
2022-12-27T23:08:04.720Z,6.69
2022-12-27T23:10:31.464Z,6.73
2022-12-27T23:13:01.007Z,6.71
2022-12-27T23:15:27.586Z,6.64
2022-12-27T23:17:54.796Z,6.63
2022-12-27T23:20:21.619Z,6.68
2022-12-27T23:22:48.269Z,6.69
2022-12-27T23:25:14.873Z,6.67
2022-12-27T23:27:41.375Z,6.59
2022-12-27T23:30:08.194Z,6.60
2022-12-27T23:32:34.758Z,6.57
2022-12-27T23:35:01.320Z,6.59
2022-12-27T23:37:27.951Z,6.55
2022-12-27T23:39:54.669Z,6.45
2022-12-27T23:42:21.583Z,6.53
2022-12-27T23:44:48.188Z,6.57
2022-12-27T23:47:15.867Z,6.59
2022-12-27T23:49:45.421Z,6.43
2022-12-27T23:52:14.791Z,6.36
2022-12-27T23:54:41.549Z,6.36
2022-12-27T23:57:20.194Z,6.28
2022-12-27T23:59:49.507Z,6.28
